sensor_id;sensor_type;location;lat;lon;timestamp;temperature;humidity
63960;DHT22;50136;51.374;0.096;2023-08-17T00:03:59;16.60;99.90
63960;DHT22;50136;51.374;0.096;2023-08-17T00:14:01;16.80;99.90
63960;DHT22;50136;51.374;0.096;2023-08-17T00:24:05;16.90;99.90
63960;DHT22;50136;51.374;0.096;2023-08-17T00:34:07;17.10;99.90
63960;DHT22;50136;51.374;0.096;2023-08-17T00:44:10;17.10;99.90
63960;DHT22;50136;51.374;0.096;2023-08-17T00:54:12;17.10;99.90
63960;DHT22;50136;51.374;0.096;2023-08-17T01:04:15;17.10;99.90
63960;DHT22;50136;51.374;0.096;2023-08-17T01:14:21;17.00;99.90
63960;DHT22;50136;51.374;0.096;2023-08-17T01:24:26;16.90;99.90
63960;DHT22;50136;51.374;0.096;2023-08-17T01:34:29;16.80;99.90
63960;DHT22;50136;51.374;0.096;2023-08-17T01:44:36;16.70;99.90
63960;DHT22;50136;51.374;0.096;2023-08-17T01:54:38;16.70;99.90
63960;DHT22;50136;51.374;0.096;2023-08-17T02:04:41;16.70;99.90
63960;DHT22;50136;51.374;0.096;2023-08-17T02:14:43;16.70;99.90
63960;DHT22;50136;51.374;0.096;2023-08-17T02:24:47;16.90;99.90
63960;DHT22;50136;51.374;0.096;2023-08-17T02:34:49;17.00;99.90
63960;DHT22;50136;51.374;0.096;2023-08-17T02:44:52;17.00;99.90
63960;DHT22;50136;51.374;0.096;2023-08-17T02:54:54;17.10;99.90
63960;DHT22;50136;51.374;0.096;2023-08-17T03:04:57;17.10;99.90
63960;DHT22;50136;51.374;0.096;2023-08-17T03:14:59;17.20;99.90
63960;DHT22;50136;51.374;0.096;2023-08-17T03:25:03;17.30;99.90
63960;DHT22;50136;51.374;0.096;2023-08-17T03:35:06;17.40;99.90
63960;DHT22;50136;51.374;0.096;2023-08-17T03:45:10;17.40;99.90
63960;DHT22;50136;51.374;0.096;2023-08-17T03:55:12;17.50;99.90
63960;DHT22;50136;51.374;0.096;2023-08-17T04:05:15;17.60;99.90
63960;DHT22;50136;51.374;0.096;2023-08-17T04:15:17;17.60;99.90
63960;DHT22;50136;51.374;0.096;2023-08-17T04:25:21;17.60;99.90
63960;DHT22;50136;51.374;0.096;2023-08-17T04:35:23;17.60;99.90
63960;DHT22;50136;51.374;0.096;2023-08-17T04:45:26;17.60;99.90
63960;DHT22;50136;51.374;0.096;2023-08-17T04:55:28;17.60;99.90
63960;DHT22;50136;51.374;0.096;2023-08-17T05:05:31;17.50;99.90
63960;DHT22;50136;51.374;0.096;2023-08-17T05:15:33;17.50;99.90
63960;DHT22;50136;51.374;0.096;2023-08-17T05:25:37;17.50;99.90
63960;DHT22;50136;51.374;0.096;2023-08-17T05:35:39;17.60;99.90
63960;DHT22;50136;51.374;0.096;2023-08-17T05:45:42;17.70;99.90
63960;DHT22;50136;51.374;0.096;2023-08-17T05:55:44;17.80;99.90
63960;DHT22;50136;51.374;0.096;2023-08-17T06:05:47;18.00;99.90
63960;DHT22;50136;51.374;0.096;2023-08-17T06:15:49;18.20;99.90
63960;DHT22;50136;51.374;0.096;2023-08-17T06:25:56;18.40;99.90
63960;DHT22;50136;51.374;0.096;2023-08-17T06:35:58;18.60;99.90
63960;DHT22;50136;51.374;0.096;2023-08-17T06:46:01;18.70;99.90
63960;DHT22;50136;51.374;0.096;2023-08-17T06:56:04;18.80;99.90
63960;DHT22;50136;51.374;0.096;2023-08-17T07:06:08;19.00;99.90
63960;DHT22;50136;51.374;0.096;2023-08-17T07:16:10;19.30;99.90
63960;DHT22;50136;51.374;0.096;2023-08-17T07:26:13;19.60;99.90
63960;DHT22;50136;51.374;0.096;2023-08-17T07:36:15;19.90;99.90
63960;DHT22;50136;51.374;0.096;2023-08-17T07:46:19;20.10;99.90
63960;DHT22;50136;51.374;0.096;2023-08-17T07:56:21;19.90;99.90
63960;DHT22;50136;51.374;0.096;2023-08-17T08:06:24;20.30;99.90
63960;DHT22;50136;51.374;0.096;2023-08-17T08:16:27;20.50;99.90
63960;DHT22;50136;51.374;0.096;2023-08-17T08:26:31;20.70;99.90
63960;DHT22;50136;51.374;0.096;2023-08-17T08:36:33;20.90;99.90
63960;DHT22;50136;51.374;0.096;2023-08-17T08:46:39;22.30;99.90
63960;DHT22;50136;51.374;0.096;2023-08-17T08:56:43;24.10;99.90
63960;DHT22;50136;51.374;0.096;2023-08-17T09:06:50;26.00;99.90
63960;DHT22;50136;51.374;0.096;2023-08-17T09:16:52;25.90;99.90
63960;DHT22;50136;51.374;0.096;2023-08-17T09:26:56;25.00;99.90
63960;DHT22;50136;51.374;0.096;2023-08-17T09:37:02;23.70;99.90
63960;DHT22;50136;51.374;0.096;2023-08-17T09:47:06;24.20;99.90
63960;DHT22;50136;51.374;0.096;2023-08-17T09:57:09;23.80;99.90
63960;DHT22;50136;51.374;0.096;2023-08-17T10:07:14;22.80;99.90
63960;DHT22;50136;51.374;0.096;2023-08-17T10:17:22;23.10;99.90
63960;DHT22;50136;51.374;0.096;2023-08-17T10:27:29;24.80;99.60
63960;DHT22;50136;51.374;0.096;2023-08-17T10:37:32;25.40;99.60
63960;DHT22;50136;51.374;0.096;2023-08-17T10:47:36;24.70;99.90
63960;DHT22;50136;51.374;0.096;2023-08-17T10:57:39;24.70;98.90
63960;DHT22;50136;51.374;0.096;2023-08-17T11:07:43;25.20;99.00
63960;DHT22;50136;51.374;0.096;2023-08-17T11:17:45;25.70;97.40
63960;DHT22;50136;51.374;0.096;2023-08-17T11:27:50;25.00;98.60
63960;DHT22;50136;51.374;0.096;2023-08-17T11:37:52;25.70;97.70
63960;DHT22;50136;51.374;0.096;2023-08-17T11:47:55;25.40;97.90
63960;DHT22;50136;51.374;0.096;2023-08-17T11:57:58;24.60;99.00
63960;DHT22;50136;51.374;0.096;2023-08-17T12:08:01;25.50;97.50
63960;DHT22;50136;51.374;0.096;2023-08-17T12:18:04;25.10;98.10
63960;DHT22;50136;51.374;0.096;2023-08-17T12:28:08;24.70;98.20
63960;DHT22;50136;51.374;0.096;2023-08-17T12:38:10;24.80;98.10
63960;DHT22;50136;51.374;0.096;2023-08-17T12:48:13;24.10;99.00
63960;DHT22;50136;51.374;0.096;2023-08-17T12:58:16;23.50;99.40
63960;DHT22;50136;51.374;0.096;2023-08-17T13:08:20;24.10;99.00
63960;DHT22;50136;51.374;0.096;2023-08-17T13:18:22;24.10;98.90
63960;DHT22;50136;51.374;0.096;2023-08-17T13:28:25;23.90;98.70
63960;DHT22;50136;51.374;0.096;2023-08-17T13:38:27;23.80;99.30
63960;DHT22;50136;51.374;0.096;2023-08-17T13:48:31;23.20;99.90
63960;DHT22;50136;51.374;0.096;2023-08-17T13:58:33;23.20;99.90
63960;DHT22;50136;51.374;0.096;2023-08-17T14:08:37;23.40;99.40
63960;DHT22;50136;51.374;0.096;2023-08-17T14:18:39;23.30;99.70
63960;DHT22;50136;51.374;0.096;2023-08-17T14:28:42;23.50;98.90
63960;DHT22;50136;51.374;0.096;2023-08-17T14:38:46;23.90;97.40
63960;DHT22;50136;51.374;0.096;2023-08-17T14:48:49;23.80;97.70
63960;DHT22;50136;51.374;0.096;2023-08-17T14:58:51;23.80;97.30
63960;DHT22;50136;51.374;0.096;2023-08-17T15:08:55;23.80;98.30
63960;DHT22;50136;51.374;0.096;2023-08-17T15:18:57;24.10;97.90
63960;DHT22;50136;51.374;0.096;2023-08-17T15:29:00;23.70;97.70
63960;DHT22;50136;51.374;0.096;2023-08-17T15:39:02;23.40;97.70
63960;DHT22;50136;51.374;0.096;2023-08-17T15:49:06;23.40;97.80
63960;DHT22;50136;51.374;0.096;2023-08-17T15:59:08;23.40;98.50
63960;DHT22;50136;51.374;0.096;2023-08-17T16:09:12;23.60;98.00
63960;DHT22;50136;51.374;0.096;2023-08-17T16:19:14;23.30;98.90
63960;DHT22;50136;51.374;0.096;2023-08-17T16:29:17;23.10;99.70
63960;DHT22;50136;51.374;0.096;2023-08-17T16:39:19;22.70;99.60
63960;DHT22;50136;51.374;0.096;2023-08-17T16:49:23;22.70;98.90
63960;DHT22;50136;51.374;0.096;2023-08-17T16:59:31;21.90;99.90
63960;DHT22;50136;51.374;0.096;2023-08-17T17:09:35;21.80;99.90
63960;DHT22;50136;51.374;0.096;2023-08-17T17:19:38;21.60;99.90
63960;DHT22;50136;51.374;0.096;2023-08-17T17:29:41;20.80;99.90
63960;DHT22;50136;51.374;0.096;2023-08-17T17:39:43;21.10;99.90
63960;DHT22;50136;51.374;0.096;2023-08-17T17:49:46;20.80;99.90
63960;DHT22;50136;51.374;0.096;2023-08-17T17:59:48;20.50;99.90
63960;DHT22;50136;51.374;0.096;2023-08-17T18:09:52;20.10;99.90
63960;DHT22;50136;51.374;0.096;2023-08-17T18:19:54;19.90;99.90
63960;DHT22;50136;51.374;0.096;2023-08-17T18:29:57;19.60;99.90
63960;DHT22;50136;51.374;0.096;2023-08-17T18:39:59;19.60;99.90
63960;DHT22;50136;51.374;0.096;2023-08-17T18:50:03;19.50;99.90
63960;DHT22;50136;51.374;0.096;2023-08-17T19:00:06;19.30;99.90
63960;DHT22;50136;51.374;0.096;2023-08-17T19:10:10;19.20;99.90
63960;DHT22;50136;51.374;0.096;2023-08-17T19:20:12;19.20;99.90
63960;DHT22;50136;51.374;0.096;2023-08-17T19:30:15;19.30;99.90
63960;DHT22;50136;51.374;0.096;2023-08-17T19:40:17;19.10;99.90
63960;DHT22;50136;51.374;0.096;2023-08-17T19:50:21;18.90;99.90
63960;DHT22;50136;51.374;0.096;2023-08-17T20:00:26;19.00;99.90
63960;DHT22;50136;51.374;0.096;2023-08-17T20:10:42;18.80;99.90
63960;DHT22;50136;51.374;0.096;2023-08-17T20:20:49;18.90;99.90
63960;DHT22;50136;51.374;0.096;2023-08-17T20:30:56;18.90;99.90
63960;DHT22;50136;51.374;0.096;2023-08-17T20:51:57;18.60;99.90
63960;DHT22;50136;51.374;0.096;2023-08-17T21:01:59;18.50;99.90
63960;DHT22;50136;51.374;0.096;2023-08-17T21:12:03;18.60;99.90
63960;DHT22;50136;51.374;0.096;2023-08-17T21:22:05;18.50;99.90
63960;DHT22;50136;51.374;0.096;2023-08-17T21:32:09;18.40;99.90
63960;DHT22;50136;51.374;0.096;2023-08-17T21:42:11;18.40;99.90
63960;DHT22;50136;51.374;0.096;2023-08-17T21:52:14;18.50;99.90
63960;DHT22;50136;51.374;0.096;2023-08-17T22:02:17;18.40;99.90
63960;DHT22;50136;51.374;0.096;2023-08-17T22:12:21;18.50;99.90
63960;DHT22;50136;51.374;0.096;2023-08-17T22:22:23;18.40;99.90
63960;DHT22;50136;51.374;0.096;2023-08-17T22:32:26;18.50;99.90
63960;DHT22;50136;51.374;0.096;2023-08-17T22:42:28;18.50;99.90
63960;DHT22;50136;51.374;0.096;2023-08-17T22:52:31;18.60;99.90
63960;DHT22;50136;51.374;0.096;2023-08-17T23:02:33;18.60;99.90
63960;DHT22;50136;51.374;0.096;2023-08-17T23:12:37;18.50;99.90
63960;DHT22;50136;51.374;0.096;2023-08-17T23:22:39;18.50;99.90
63960;DHT22;50136;51.374;0.096;2023-08-17T23:32:42;18.50;99.90
63960;DHT22;50136;51.374;0.096;2023-08-17T23:42:44;18.50;99.90
63960;DHT22;50136;51.374;0.096;2023-08-17T23:52:47;18.50;99.90
